Time;durP1;ratioP1;P1;durP2;ratioP2;P2;SDS_P1;SDS_P2;PMS_P1;PMS_P2;Temp;Humidity;BMP_temperature;BMP_pressure;BME280_temperature;BME280_humidity;BME280_pressure;Samples;Min_cycle;Max_cycle;Signal;HPM_P1;HPM_P2
2021/07/16 00:01:21;;;;;;;1.90;1.10;;;;;;;;;;5054494;28;20044;-52
2021/07/16 00:03:46;;;;;;;2.35;1.00;;;;;;;;;;5054358;28;20013;-52
2021/07/16 00:06:12;;;;;;;3.50;1.10;;;;;;;;;;5054136;28;20601;-52
2021/07/16 00:08:37;;;;;;;1.58;0.93;;;;;;;;;;5054225;28;20024;-52
2021/07/16 00:11:02;;;;;;;4.88;1.08;;;;;;;;;;5054348;28;20029;-53
2021/07/16 00:13:28;;;;;;;3.55;1.10;;;;;;;;;;5054125;28;20459;-52
2021/07/16 00:15:53;;;;;;;3.40;0.82;;;;;;;;;;5069336;28;20043;-52
2021/07/16 00:18:18;;;;;;;0.80;0.73;;;;;;;;;;5054196;28;20028;-52
2021/07/16 00:20:44;;;;;;;10.45;2.00;;;;;;;;;;5054180;28;20467;-52
2021/07/16 00:23:10;;;;;;;1.52;1.00;;;;;;;;;;5054146;28;20539;-52
2021/07/16 00:25:35;;;;;;;1.55;1.02;;;;;;;;;;5054112;28;20028;-52
2021/07/16 00:28:01;;;;;;;3.25;1.33;;;;;;;;;;5053514;28;20490;-52
2021/07/16 00:30:26;;;;;;;3.05;1.00;;;;;;;;;;5052454;28;20064;-53
2021/07/16 00:32:51;;;;;;;5.13;1.38;;;;;;;;;;5053949;28;20079;-52
2021/07/16 00:35:17;;;;;;;3.53;1.10;;;;;;;;;;5053689;28;20032;-52
2021/07/16 00:37:42;;;;;;;2.55;1.08;;;;;;;;;;5053552;28;20025;-52
2021/07/16 00:40:09;;;;;;;3.95;0.90;;;;;;;;;;5053509;28;20036;-53
2021/07/16 00:42:35;;;;;;;1.30;1.00;;;;;;;;;;5052174;28;20636;-52
2021/07/16 00:45:00;;;;;;;3.28;1.00;;;;;;;;;;5053460;28;20029;-52
2021/07/16 00:47:25;;;;;;;2.58;1.58;;;;;;;;;;5053713;28;20027;-52
2021/07/16 00:49:51;;;;;;;1.42;0.90;;;;;;;;;;5053029;28;20049;-52
2021/07/16 00:52:16;;;;;;;2.50;0.95;;;;;;;;;;5053450;28;20035;-52
2021/07/16 00:54:42;;;;;;;5.18;1.38;;;;;;;;;;5053583;28;20090;-52
2021/07/16 00:57:07;;;;;;;1.75;1.08;;;;;;;;;;5053268;28;20474;-53
2021/07/16 00:59:33;;;;;;;2.15;1.23;;;;;;;;;;5053341;28;20495;-52
2021/07/16 01:01:58;;;;;;;6.68;1.23;;;;;;;;;;5052975;28;20442;-52
2021/07/16 01:04:24;;;;;;;5.35;1.13;;;;;;;;;;5053333;28;20078;-52
2021/07/16 01:06:50;;;;;;;3.53;1.40;;;;;;;;;;5053206;28;20463;-52
2021/07/16 01:09:15;;;;;;;7.10;1.55;;;;;;;;;;5052964;28;20430;-52
2021/07/16 01:11:40;;;;;;;2.45;1.00;;;;;;;;;;5052997;28;20031;-53
2021/07/16 01:14:09;;;;;;;5.10;1.73;;;;;;;;;;5052778;28;20033;-52
2021/07/16 01:16:35;;;;;;;2.85;1.30;;;;;;;;;;5053186;28;20060;-53
2021/07/16 01:19:01;;;;;;;1.77;0.90;;;;;;;;;;5052762;28;20048;-52
2021/07/16 01:21:27;;;;;;;1.10;0.80;;;;;;;;;;5052762;28;20478;-53
2021/07/16 01:23:53;;;;;;;11.48;1.38;;;;;;;;;;5052683;28;20071;-52
2021/07/16 01:26:18;;;;;;;1.50;0.93;;;;;;;;;;5052737;28;20044;-52
2021/07/16 01:28:44;;;;;;;2.70;1.75;;;;;;;;;;5052664;28;20028;-52
2021/07/16 01:31:09;;;;;;;1.33;1.13;;;;;;;;;;5052599;28;20095;-52
2021/07/16 01:33:35;;;;;;;3.53;1.10;;;;;;;;;;5051317;28;20029;-52
2021/07/16 01:36:00;;;;;;;3.97;1.05;;;;;;;;;;5052533;28;20017;-52
2021/07/16 01:38:26;;;;;;;2.55;1.30;;;;;;;;;;5052830;28;20485;-53
2021/07/16 01:40:51;;;;;;;6.95;1.20;;;;;;;;;;5051753;28;20383;-52
2021/07/16 01:43:17;;;;;;;2.13;1.17;;;;;;;;;;5052536;28;20060;-52
2021/07/16 01:45:43;;;;;;;1.15;1.00;;;;;;;;;;5052508;28;20021;-54
2021/07/16 01:48:15;;;;;;;4.28;1.30;;;;;;;;;;5052600;28;20029;-53
2021/07/16 01:50:42;;;;;;;2.55;1.40;;;;;;;;;;5052413;28;20132;-52
2021/07/16 01:53:08;;;;;;;1.00;0.90;;;;;;;;;;5052261;28;20029;-53
2021/07/16 01:55:34;;;;;;;2.58;1.55;;;;;;;;;;5052613;28;20025;-53
2021/07/16 01:58:01;;;;;;;3.83;1.33;;;;;;;;;;5052483;28;20017;-53
2021/07/16 02:00:31;;;;;;;4.68;1.15;;;;;;;;;;5052482;28;20041;-53
2021/07/16 02:02:57;;;;;;;3.88;0.93;;;;;;;;;;5052138;28;20041;-52
2021/07/16 02:05:23;;;;;;;1.52;0.95;;;;;;;;;;5052599;28;20035;-53
2021/07/16 02:07:50;;;;;;;2.33;1.13;;;;;;;;;;5052421;28;20384;-52
2021/07/16 02:10:16;;;;;;;3.60;1.20;;;;;;;;;;5052164;28;20028;-53
2021/07/16 02:12:41;;;;;;;1.67;0.80;;;;;;;;;;5052293;28;20047;-52
2021/07/16 02:15:10;;;;;;;5.60;1.15;;;;;;;;;;5051950;28;20037;-52
2021/07/16 02:17:35;;;;;;;1.23;0.93;;;;;;;;;;5052394;28;20025;-52
2021/07/16 02:20:01;;;;;;;4.97;1.17;;;;;;;;;;5052352;28;20051;-52
2021/07/16 02:22:26;;;;;;;6.57;1.20;;;;;;;;;;5051859;28;20487;-53
2021/07/16 02:24:52;;;;;;;3.80;0.95;;;;;;;;;;5052330;28;20114;-53
2021/07/16 02:27:18;;;;;;;2.20;1.00;;;;;;;;;;5052322;28;20345;-52
2021/07/16 02:29:43;;;;;;;1.02;0.93;;;;;;;;;;5051941;28;20118;-52
2021/07/16 02:32:08;;;;;;;3.17;0.90;;;;;;;;;;5051930;28;20013;-52
2021/07/16 02:34:34;;;;;;;3.35;0.77;;;;;;;;;;5052240;28;20559;-52
2021/07/16 02:36:59;;;;;;;5.30;1.15;;;;;;;;;;5051858;28;20021;-53
2021/07/16 02:39:24;;;;;;;1.35;0.90;;;;;;;;;;5051942;28;20051;-53
2021/07/16 02:41:50;;;;;;;1.10;0.95;;;;;;;;;;5052020;28;20025;-53
2021/07/16 02:44:15;;;;;;;3.85;1.20;;;;;;;;;;5051816;28;20386;-52
2021/07/16 02:46:40;;;;;;;2.03;0.88;;;;;;;;;;5051834;28;20025;-52
2021/07/16 02:49:06;;;;;;;2.83;1.10;;;;;;;;;;5052022;28;20086;-52
2021/07/16 02:51:31;;;;;;;2.58;0.88;;;;;;;;;;5051707;28;20487;-51
2021/07/16 02:53:56;;;;;;;2.03;1.10;;;;;;;;;;5055449;28;20033;-53
2021/07/16 02:56:23;;;;;;;1.50;1.05;;;;;;;;;;5055947;28;20110;-53
2021/07/16 02:58:48;;;;;;;3.35;1.15;;;;;;;;;;5055454;28;20029;-51
2021/07/16 03:01:14;;;;;;;1.75;1.10;;;;;;;;;;5055286;28;20036;-51
2021/07/16 03:03:39;;;;;;;3.08;1.08;;;;;;;;;;5055400;28;20121;-53
2021/07/16 03:06:04;;;;;;;1.98;1.10;;;;;;;;;;5055457;28;20083;-52
2021/07/16 03:08:30;;;;;;;2.53;1.08;;;;;;;;;;5054425;28;20025;-52
2021/07/16 03:10:55;;;;;;;1.88;1.40;;;;;;;;;;5055503;28;20100;-52
2021/07/16 03:13:21;;;;;;;1.85;1.23;;;;;;;;;;5055199;28;20029;-52
2021/07/16 03:15:46;;;;;;;3.30;1.13;;;;;;;;;;5055313;28;20511;-53
2021/07/16 03:18:12;;;;;;;10.18;1.98;;;;;;;;;;5055293;28;20033;-51
2021/07/16 03:20:39;;;;;;;3.28;1.00;;;;;;;;;;5054964;28;20012;-52
2021/07/16 03:23:05;;;;;;;2.60;1.10;;;;;;;;;;5055285;28;20033;-51
2021/07/16 03:25:30;;;;;;;1.33;0.98;;;;;;;;;;5054970;28;20021;-52
2021/07/16 03:27:56;;;;;;;2.20;1.42;;;;;;;;;;5054783;28;20091;-51
2021/07/16 03:30:23;;;;;;;2.33;1.40;;;;;;;;;;5054953;28;20014;-59
2021/07/16 03:32:48;;;;;;;1.08;0.90;;;;;;;;;;5054841;28;20590;-52
2021/07/16 03:35:14;;;;;;;1.70;1.13;;;;;;;;;;5055116;28;20112;-52
2021/07/16 03:37:40;;;;;;;1.23;1.13;;;;;;;;;;5055039;28;20024;-52
2021/07/16 03:40:06;;;;;;;2.92;1.00;;;;;;;;;;5054966;28;20017;-53
2021/07/16 03:42:32;;;;;;;4.03;0.90;;;;;;;;;;5054660;28;20115;-52
2021/07/16 03:44:57;;;;;;;1.73;1.02;;;;;;;;;;5054856;28;20459;-52
2021/07/16 03:47:23;;;;;;;3.50;1.08;;;;;;;;;;5054598;28;20029;-51
2021/07/16 03:49:48;;;;;;;3.00;1.05;;;;;;;;;;5054438;28;20097;-52
2021/07/16 03:52:15;;;;;;;1.05;0.93;;;;;;;;;;5054809;28;20052;-52
2021/07/16 03:54:40;;;;;;;5.32;1.40;;;;;;;;;;5054466;28;20033;-52
2021/07/16 03:57:06;;;;;;;4.90;1.45;;;;;;;;;;5052981;28;20060;-52
2021/07/16 03:59:31;;;;;;;2.45;1.20;;;;;;;;;;5054763;28;20100;-52
2021/07/16 04:01:57;;;;;;;1.50;1.08;;;;;;;;;;5054074;28;20480;-52
2021/07/16 04:04:22;;;;;;;5.18;1.08;;;;;;;;;;5053912;28;20025;-52
2021/07/16 04:06:53;;;;;;;1.48;1.00;;;;;;;;;;5054297;28;20047;-52
2021/07/16 04:09:30;;;;;;;1.33;1.05;;;;;;;;;;5054426;28;20345;-52
2021/07/16 04:12:05;;;;;;;6.32;1.52;;;;;;;;;;5054094;28;20539;-52
2021/07/16 04:14:32;;;;;;;4.63;1.08;;;;;;;;;;5054126;28;20069;-51
2021/07/16 04:16:57;;;;;;;1.48;1.25;;;;;;;;;;5054214;28;20028;-52
2021/07/16 04:19:23;;;;;;;3.47;1.10;;;;;;;;;;5053992;28;20032;-52
2021/07/16 04:21:48;;;;;;;1.33;1.23;;;;;;;;;;5054005;28;20116;-52
2021/07/16 04:24:13;;;;;;;2.88;1.25;;;;;;;;;;5053810;28;20552;-51
2021/07/16 04:26:39;;;;;;;1.35;0.95;;;;;;;;;;5053845;28;20017;-52
2021/07/16 04:29:04;;;;;;;4.15;1.40;;;;;;;;;;5053809;28;20029;-52
2021/07/16 04:31:29;;;;;;;4.30;1.48;;;;;;;;;;5053720;28;20051;-52
2021/07/16 04:33:55;;;;;;;3.75;1.27;;;;;;;;;;5053650;28;20025;-51
2021/07/16 04:36:20;;;;;;;2.25;1.20;;;;;;;;;;5053733;28;20013;-52
2021/07/16 04:38:45;;;;;;;1.73;1.10;;;;;;;;;;5053610;28;20040;-52
2021/07/16 04:41:11;;;;;;;7.13;0.98;;;;;;;;;;5053514;28;20460;-52
2021/07/16 04:43:36;;;;;;;1.20;1.10;;;;;;;;;;5053593;28;20104;-52
2021/07/16 04:46:02;;;;;;;3.85;1.23;;;;;;;;;;5053364;28;20025;-52
2021/07/16 04:48:27;;;;;;;1.58;1.27;;;;;;;;;;5053464;28;20033;-52
2021/07/16 04:50:52;;;;;;;4.55;1.38;;;;;;;;;;5053182;28;20139;-52
2021/07/16 04:53:18;;;;;;;4.90;1.35;;;;;;;;;;5053647;28;20036;-51
2021/07/16 04:55:43;;;;;;;1.75;0.95;;;;;;;;;;5053341;28;20017;-52
2021/07/16 04:58:08;;;;;;;0.98;0.88;;;;;;;;;;5053339;28;20454;-52
2021/07/16 05:00:34;;;;;;;10.82;1.58;;;;;;;;;;5053200;28;20456;-52
2021/07/16 05:03:01;;;;;;;1.38;0.88;;;;;;;;;;5053013;28;20033;-52
2021/07/16 05:05:26;;;;;;;5.22;1.23;;;;;;;;;;5051844;28;20028;-52
2021/07/16 05:07:51;;;;;;;3.63;1.10;;;;;;;;;;5053299;28;20033;-52
2021/07/16 05:10:17;;;;;;;4.07;1.35;;;;;;;;;;5052948;28;20025;-52
2021/07/16 05:12:42;;;;;;;4.20;1.02;;;;;;;;;;5053253;28;20040;-51
2021/07/16 05:15:08;;;;;;;2.80;1.40;;;;;;;;;;5052094;28;20491;-53
2021/07/16 05:17:33;;;;;;;2.75;1.20;;;;;;;;;;5052786;28;20029;-53
2021/07/16 05:19:59;;;;;;;2.65;1.00;;;;;;;;;;5052810;28;20021;-51
2021/07/16 05:22:24;;;;;;;1.80;1.00;;;;;;;;;;5052762;28;20036;-52
2021/07/16 05:24:49;;;;;;;9.18;1.10;;;;;;;;;;5052789;28;20017;-53
2021/07/16 05:27:15;;;;;;;6.55;1.20;;;;;;;;;;5051687;28;20058;-52
2021/07/16 05:29:40;;;;;;;7.20;1.17;;;;;;;;;;5052667;28;20406;-52
2021/07/16 05:32:06;;;;;;;1.75;0.95;;;;;;;;;;5052588;28;20086;-52
2021/07/16 05:34:32;;;;;;;1.05;0.75;;;;;;;;;;5052575;28;20023;-52
2021/07/16 05:36:57;;;;;;;1.80;1.23;;;;;;;;;;5052833;28;20387;-52
2021/07/16 05:39:22;;;;;;;1.52;0.85;;;;;;;;;;5052707;28;20021;-51
2021/07/16 05:41:48;;;;;;;1.83;1.20;;;;;;;;;;5052330;28;20094;-52
2021/07/16 05:44:13;;;;;;;1.15;0.98;;;;;;;;;;5052493;28;20162;-51
2021/07/16 05:46:38;;;;;;;1.98;1.13;;;;;;;;;;5052751;28;20025;-52
2021/07/16 05:49:04;;;;;;;4.13;1.45;;;;;;;;;;5052528;28;20025;-52
2021/07/16 05:51:29;;;;;;;1.10;1.00;;;;;;;;;;5052469;28;20041;-51
2021/07/16 05:53:55;;;;;;;5.90;1.10;;;;;;;;;;5052456;28;20029;-51
2021/07/16 05:56:20;;;;;;;1.55;1.10;;;;;;;;;;5052314;28;20395;-51
2021/07/16 05:58:45;;;;;;;3.13;1.00;;;;;;;;;;5052399;28;20086;-51
2021/07/16 06:01:11;;;;;;;2.47;1.08;;;;;;;;;;5052397;28;20036;-51
2021/07/16 06:03:36;;;;;;;2.65;1.15;;;;;;;;;;5052464;28;20426;-51
2021/07/16 06:06:02;;;;;;;1.23;0.95;;;;;;;;;;5052344;28;20052;-52
2021/07/16 06:08:27;;;;;;;2.00;0.98;;;;;;;;;;5052517;28;20506;-51
2021/07/16 06:10:52;;;;;;;1.95;0.93;;;;;;;;;;5052181;28;20502;-51
2021/07/16 06:13:18;;;;;;;5.28;0.85;;;;;;;;;;5052372;28;20017;-51
2021/07/16 06:15:43;;;;;;;6.95;1.10;;;;;;;;;;5052471;28;20112;-51
2021/07/16 06:18:09;;;;;;;3.55;1.10;;;;;;;;;;5051990;28;20540;-52
2021/07/16 06:20:34;;;;;;;1.67;1.02;;;;;;;;;;5052081;28;20403;-52
2021/07/16 06:23:00;;;;;;;2.85;1.20;;;;;;;;;;5051933;28;20029;-51
2021/07/16 06:25:25;;;;;;;6.07;0.95;;;;;;;;;;5052280;28;20112;-51
2021/07/16 06:27:51;;;;;;;1.02;0.88;;;;;;;;;;5055969;28;20017;-50
2021/07/16 06:30:16;;;;;;;3.05;1.00;;;;;;;;;;5054862;28;20045;-51
2021/07/16 06:32:42;;;;;;;1.02;0.57;;;;;;;;;;5055959;28;20518;-52
2021/07/16 06:35:08;;;;;;;1.70;0.90;;;;;;;;;;5071315;28;20021;-52
2021/07/16 06:37:34;;;;;;;3.42;1.17;;;;;;;;;;5055885;28;20422;-52
2021/07/16 06:40:01;;;;;;;1.58;1.23;;;;;;;;;;5055822;28;20036;-52
2021/07/16 06:42:26;;;;;;;3.22;1.05;;;;;;;;;;5055814;28;20033;-52
2021/07/16 06:44:52;;;;;;;1.63;0.80;;;;;;;;;;5056005;28;20028;-51
2021/07/16 06:47:17;;;;;;;2.88;1.10;;;;;;;;;;5055904;28;20356;-52
2021/07/16 06:49:44;;;;;;;1.27;0.80;;;;;;;;;;5055521;28;20063;-52
2021/07/16 06:52:10;;;;;;;1.55;0.88;;;;;;;;;;5055630;28;20103;-52
2021/07/16 06:54:35;;;;;;;2.15;1.30;;;;;;;;;;5055557;28;20127;-52
2021/07/16 06:57:01;;;;;;;3.47;1.00;;;;;;;;;;5055673;28;20051;-52
2021/07/16 06:59:26;;;;;;;1.52;0.95;;;;;;;;;;5055508;28;20029;-52
2021/07/16 07:01:52;;;;;;;5.68;1.10;;;;;;;;;;5055435;28;20051;-52
2021/07/16 07:04:17;;;;;;;1.98;0.98;;;;;;;;;;5055652;28;20348;-52
2021/07/16 07:06:43;;;;;;;2.00;0.90;;;;;;;;;;5055292;28;20043;-52
2021/07/16 07:09:09;;;;;;;3.45;1.08;;;;;;;;;;5055221;28;20021;-51
2021/07/16 07:11:35;;;;;;;0.70;0.70;;;;;;;;;;5055381;28;20070;-52
2021/07/16 07:14:00;;;;;;;5.10;1.10;;;;;;;;;;5055227;28;20021;-52
2021/07/16 07:16:25;;;;;;;1.35;0.77;;;;;;;;;;5053912;28;20028;-52
2021/07/16 07:18:51;;;;;;;3.28;1.35;;;;;;;;;;5055275;28;20111;-52
2021/07/16 07:21:16;;;;;;;2.17;1.20;;;;;;;;;;5055222;28;20032;-52
2021/07/16 07:23:42;;;;;;;6.15;1.00;;;;;;;;;;5055408;28;20082;-52
2021/07/16 07:26:07;;;;;;;3.10;0.95;;;;;;;;;;5054988;28;20096;-52
2021/07/16 07:28:33;;;;;;;1.10;0.77;;;;;;;;;;5055004;28;20078;-52
2021/07/16 07:30:58;;;;;;;2.60;1.33;;;;;;;;;;5054932;28;20009;-51
2021/07/16 07:33:24;;;;;;;1.45;0.80;;;;;;;;;;5055237;28;20029;-51
2021/07/16 07:35:49;;;;;;;4.72;0.93;;;;;;;;;;5054864;28;20356;-53
2021/07/16 07:38:14;;;;;;;1.98;0.85;;;;;;;;;;5053910;28;20033;-53
2021/07/16 07:40:41;;;;;;;0.98;0.82;;;;;;;;;;5054719;28;20108;-52
2021/07/16 07:43:06;;;;;;;1.85;1.13;;;;;;;;;;5054576;28;20045;-53
2021/07/16 07:45:32;;;;;;;2.75;1.20;;;;;;;;;;5055031;28;20115;-52
2021/07/16 07:47:58;;;;;;;0.75;0.75;;;;;;;;;;5069874;28;20076;-52
2021/07/16 07:50:24;;;;;;;0.93;0.90;;;;;;;;;;5053169;28;20423;-52
2021/07/16 07:52:50;;;;;;;5.18;0.80;;;;;;;;;;5054502;28;20037;-51
2021/07/16 07:55:17;;;;;;;1.90;0.90;;;;;;;;;;5054494;28;20017;-52
2021/07/16 07:57:42;;;;;;;2.22;0.98;;;;;;;;;;5054430;28;20064;-52
2021/07/16 08:00:10;;;;;;;2.33;1.00;;;;;;;;;;5054213;28;20170;-53
2021/07/16 08:02:37;;;;;;;2.92;1.13;;;;;;;;;;5054382;28;20068;-52
2021/07/16 08:05:02;;;;;;;3.03;1.00;;;;;;;;;;5054084;28;20055;-52
2021/07/16 08:07:28;;;;;;;8.23;1.20;;;;;;;;;;5054222;28;20067;-52
2021/07/16 08:09:53;;;;;;;5.05;0.82;;;;;;;;;;5054264;28;20028;-52
2021/07/16 08:12:19;;;;;;;1.65;0.77;;;;;;;;;;5054024;28;20040;-52
2021/07/16 08:14:44;;;;;;;0.73;0.73;;;;;;;;;;5054483;28;20020;-51
2021/07/16 08:17:09;;;;;;;1.42;0.90;;;;;;;;;;5054001;28;20049;-52
2021/07/16 08:19:35;;;;;;;1.92;0.93;;;;;;;;;;5053987;28;20459;-52
2021/07/16 08:22:01;;;;;;;3.80;0.60;;;;;;;;;;5053878;28;20499;-52
2021/07/16 08:24:26;;;;;;;2.95;0.85;;;;;;;;;;5053932;28;20024;-52
2021/07/16 08:26:51;;;;;;;1.60;0.90;;;;;;;;;;5053958;28;20032;-53
2021/07/16 08:29:17;;;;;;;0.90;0.60;;;;;;;;;;5054078;28;20067;-51
2021/07/16 08:31:43;;;;;;;4.63;1.10;;;;;;;;;;5054022;28;20029;-52
2021/07/16 08:34:09;;;;;;;2.30;1.10;;;;;;;;;;5053751;28;20094;-52
2021/07/16 08:36:35;;;;;;;2.45;0.68;;;;;;;;;;5053591;28;20479;-52
2021/07/16 08:39:00;;;;;;;2.65;1.02;;;;;;;;;;5053572;28;20032;-52
2021/07/16 08:41:26;;;;;;;9.60;2.00;;;;;;;;;;5053870;28;20025;-52
2021/07/16 08:43:52;;;;;;;4.15;1.02;;;;;;;;;;5053756;28;20064;-52
2021/07/16 08:46:18;;;;;;;2.72;0.95;;;;;;;;;;5053447;28;20029;-52
2021/07/16 08:48:49;;;;;;;0.98;0.75;;;;;;;;;;5053457;28;20021;-52
2021/07/16 08:51:16;;;;;;;4.20;0.85;;;;;;;;;;5068602;28;20377;-52
2021/07/16 08:53:41;;;;;;;2.53;1.30;;;;;;;;;;5053325;28;20033;-51
2021/07/16 08:56:08;;;;;;;0.90;0.80;;;;;;;;;;5053492;28;20152;-52
2021/07/16 08:58:33;;;;;;;3.15;0.90;;;;;;;;;;5053344;28;20108;-52
2021/07/16 09:00:59;;;;;;;5.45;1.17;;;;;;;;;;5053019;28;20108;-52
2021/07/16 09:03:24;;;;;;;4.15;1.92;;;;;;;;;;5053214;28;20074;-51
2021/07/16 09:05:50;;;;;;;1.75;1.10;;;;;;;;;;5053437;28;20036;-51
2021/07/16 09:08:16;;;;;;;2.97;1.13;;;;;;;;;;5053208;28;20027;-52
2021/07/16 09:10:51;;;;;;;4.57;1.00;;;;;;;;;;5068536;28;20356;-52
2021/07/16 09:13:17;;;;;;;1.20;0.82;;;;;;;;;;5053173;28;20383;-52
2021/07/16 09:16:04;;;;;;;2.80;0.90;;;;;;;;;;5053037;28;20021;-52
2021/07/16 09:18:32;;;;;;;4.22;1.52;;;;;;;;;;5053000;28;20036;-52
2021/07/16 09:21:03;;;;;;;1.08;0.98;;;;;;;;;;5053021;28;20013;-50
2021/07/16 09:23:43;;;;;;;2.30;1.10;;;;;;;;;;5052735;28;20083;-52
2021/07/16 09:26:10;;;;;;;3.17;1.17;;;;;;;;;;5053046;28;20046;-52
2021/07/16 09:28:36;;;;;;;2.25;1.05;;;;;;;;;;5053003;28;20411;-51
2021/07/16 09:31:18;;;;;;;1.30;0.95;;;;;;;;;;5052609;28;20083;-54
2021/07/16 09:33:48;;;;;;;2.85;1.30;;;;;;;;;;5052688;28;20479;-52
2021/07/16 09:36:42;;;;;;;4.28;1.40;;;;;;;;;;5052529;28;20037;-51
2021/07/16 09:39:09;;;;;;;2.65;1.23;;;;;;;;;;5047956;28;20036;-52
2021/07/16 09:41:51;;;;;;;3.80;1.20;;;;;;;;;;5052557;28;20464;-51
2021/07/16 09:44:34;;;;;;;4.85;1.38;;;;;;;;;;5052480;28;20076;-52
2021/07/16 09:47:06;;;;;;;4.18;1.52;;;;;;;;;;5052402;28;20029;-51
2021/07/16 09:49:31;;;;;;;1.43;0.70;;;;;;;;;;5052570;28;20463;-52
2021/07/16 09:52:05;;;;;;;4.68;1.40;;;;;;;;;;5052106;28;20060;-51
2021/07/16 09:54:30;;;;;;;3.58;1.20;;;;;;;;;;5052731;28;20029;-52
2021/07/16 09:56:56;;;;;;;3.15;1.40;;;;;;;;;;5052315;28;20408;-52
2021/07/16 09:59:26;;;;;;;6.10;1.70;;;;;;;;;;5052300;28;20070;-51
2021/07/16 10:01:52;;;;;;;6.50;1.35;;;;;;;;;;5051734;28;20033;-51
2021/07/16 10:04:19;;;;;;;2.63;1.02;;;;;;;;;;5052110;28;20012;-51
2021/07/16 10:06:47;;;;;;;3.85;0.90;;;;;;;;;;5052036;28;20506;-51
2021/07/16 10:09:13;;;;;;;0.90;0.73;;;;;;;;;;5052056;28;20017;-52
2021/07/16 10:11:38;;;;;;;2.05;1.38;;;;;;;;;;5052192;28;20090;-51
2021/07/16 10:14:04;;;;;;;2.03;0.88;;;;;;;;;;5050856;28;20021;-52
2021/07/16 10:16:30;;;;;;;3.10;1.15;;;;;;;;;;5052401;28;20052;-52
2021/07/16 10:18:56;;;;;;;4.72;1.00;;;;;;;;;;5052048;28;20368;-51
2021/07/16 10:21:22;;;;;;;6.22;2.25;;;;;;;;;;5052142;28;20029;-51
2021/07/16 10:23:52;;;;;;;2.72;1.23;;;;;;;;;;5052124;28;20464;-51
2021/07/16 10:26:19;;;;;;;3.65;1.15;;;;;;;;;;5051938;28;20025;-53
2021/07/16 10:28:45;;;;;;;1.35;1.10;;;;;;;;;;5052124;28;20017;-52
2021/07/16 10:31:32;;;;;;;0.98;0.75;;;;;;;;;;5051943;28;20368;-52
2021/07/16 10:34:00;;;;;;;1.63;1.23;;;;;;;;;;5051826;28;20033;-52
2021/07/16 10:36:38;;;;;;;2.20;1.50;;;;;;;;;;5052009;28;20414;-51
2021/07/16 10:39:04;;;;;;;6.57;1.23;;;;;;;;;;5052209;28;20041;-51
2021/07/16 10:41:31;;;;;;;1.98;1.17;;;;;;;;;;5051803;28;20017;-51
2021/07/16 10:43:56;;;;;;;3.72;1.23;;;;;;;;;;5052041;28;20128;-52
2021/07/16 10:46:29;;;;;;;3.33;1.80;;;;;;;;;;5051878;28;20666;-52
2021/07/16 10:48:55;;;;;;;0.80;0.73;;;;;;;;;;5051815;28;20379;-52
2021/07/16 10:51:25;;;;;;;56.58;8.50;;;;;;;;;;5051643;28;20133;-51
2021/07/16 10:53:51;;;;;;;44.08;8.57;;;;;;;;;;5051973;28;20025;-52
2021/07/16 10:56:19;;;;;;;64.75;9.88;;;;;;;;;;5051656;28;20048;-52
2021/07/16 10:58:49;;;;;;;76.43;12.63;;;;;;;;;;5051845;28;20460;-51
2021/07/16 11:01:27;;;;;;;30.10;9.25;;;;;;;;;;5066926;28;20033;-51
2021/07/16 11:03:52;;;;;;;60.95;13.40;;;;;;;;;;5051859;28;20202;-52
2021/07/16 11:06:19;;;;;;;45.67;9.65;;;;;;;;;;5051841;28;20446;-51
2021/07/16 11:08:44;;;;;;;41.65;6.72;;;;;;;;;;5050363;28;20029;-52
2021/07/16 11:11:11;;;;;;;42.03;8.40;;;;;;;;;;5051604;28;20101;-52
2021/07/16 11:13:46;;;;;;;29.65;5.97;;;;;;;;;;5053374;28;20475;-51
2021/07/16 11:16:34;;;;;;;36.05;7.95;;;;;;;;;;5055304;28;20029;-52
2021/07/16 11:19:09;;;;;;;17.00;5.82;;;;;;;;;;5055175;28;20112;-53
2021/07/16 11:21:47;;;;;;;30.98;8.43;;;;;;;;;;5055134;28;20087;-53
2021/07/16 11:24:34;;;;;;;17.38;3.40;;;;;;;;;;5055048;28;20021;-52
2021/07/16 11:27:00;;;;;;;24.27;4.53;;;;;;;;;;5070391;28;20029;-52
2021/07/16 11:29:26;;;;;;;10.43;2.72;;;;;;;;;;5054991;28;20021;-51
2021/07/16 11:32:06;;;;;;;16.08;4.32;;;;;;;;;;5053723;28;20090;-51
2021/07/16 11:34:31;;;;;;;5.85;2.67;;;;;;;;;;5055180;28;20025;-51
2021/07/16 11:36:57;;;;;;;21.63;2.97;;;;;;;;;;5055142;28;20474;-52
2021/07/16 11:39:32;;;;;;;20.17;4.93;;;;;;;;;;5055071;28;20108;-52
2021/07/16 11:41:58;;;;;;;3.78;1.92;;;;;;;;;;5054590;28;20098;-52
2021/07/16 11:44:27;;;;;;;7.93;2.80;;;;;;;;;;5054736;28;20467;-53
2021/07/16 11:46:55;;;;;;;10.82;4.20;;;;;;;;;;5054647;28;20039;-52
2021/07/16 11:49:28;;;;;;;2.85;2.10;;;;;;;;;;5054878;28;20021;-52
2021/07/16 11:51:54;;;;;;;;;;;;;;;;;;5054760;28;20066;-51
2021/07/16 11:54:23;;;;;;;6.53;1.85;;;;;;;;;;5054513;28;20316;-53
2021/07/16 11:56:48;;;;;;;2.92;1.90;;;;;;;;;;5069885;28;20118;-51
2021/07/16 11:59:23;;;;;;;23.42;3.63;;;;;;;;;;5053150;28;20064;-51
2021/07/16 12:02:05;;;;;;;15.40;3.75;;;;;;;;;;5054609;28;20037;-52
2021/07/16 12:04:30;;;;;;;8.23;3.00;;;;;;;;;;5054457;28;20484;-53
2021/07/16 12:06:55;;;;;;;7.32;1.85;;;;;;;;;;5054216;28;20035;-52
2021/07/16 12:09:31;;;;;;;20.67;4.43;;;;;;;;;;5054232;28;20033;-52
2021/07/16 12:12:15;;;;;;;7.65;2.97;;;;;;;;;;5054193;28;20474;-52
2021/07/16 12:14:50;;;;;;;18.10;2.63;;;;;;;;;;5054429;28;20036;-52
2021/07/16 12:17:16;;;;;;;3.70;2.25;;;;;;;;;;5053907;28;20029;-52
2021/07/16 12:19:42;;;;;;;12.13;4.25;;;;;;;;;;5054385;28;20110;-52
2021/07/16 12:22:07;;;;;;;5.68;1.95;;;;;;;;;;5053868;28;20500;-52
2021/07/16 12:24:33;;;;;;;6.20;1.92;;;;;;;;;;5053830;28;20044;-53
2021/07/16 12:27:09;;;;;;;3.97;2.50;;;;;;;;;;5054059;28;20029;-53
2021/07/16 12:29:34;;;;;;;11.05;1.58;;;;;;;;;;5053655;28;20490;-52
2021/07/16 12:32:00;;;;;;;6.53;1.95;;;;;;;;;;5053767;28;20021;-53
2021/07/16 12:34:26;;;;;;;14.20;2.90;;;;;;;;;;5053716;28;20625;-53
2021/07/16 12:37:05;;;;;;;3.28;1.85;;;;;;;;;;5053965;28;20028;-53
2021/07/16 12:39:30;;;;;;;6.10;3.50;;;;;;;;;;5053799;28;20025;-53
2021/07/16 12:42:11;;;;;;;3.05;1.40;;;;;;;;;;5053732;28;20070;-52
2021/07/16 12:44:36;;;;;;;10.85;2.08;;;;;;;;;;5053650;28;20383;-52
2021/07/16 12:47:02;;;;;;;2.90;2.15;;;;;;;;;;5053479;28;20021;-53
2021/07/16 12:49:28;;;;;;;8.73;2.40;;;;;;;;;;5053463;28;20383;-53
2021/07/16 12:51:53;;;;;;;1.70;1.45;;;;;;;;;;5053305;28;20052;-52
2021/07/16 12:54:21;;;;;;;4.38;1.70;;;;;;;;;;5053304;28;20040;-53
2021/07/16 12:56:47;;;;;;;6.53;3.15;;;;;;;;;;5053279;28;20023;-52
2021/07/16 12:59:23;;;;;;;5.25;2.17;;;;;;;;;;5053186;28;20892;-52
2021/07/16 13:01:50;;;;;;;5.38;1.58;;;;;;;;;;5053256;28;20041;-53
2021/07/16 13:04:17;;;;;;;8.27;2.20;;;;;;;;;;5053384;28;20029;-53
2021/07/16 13:06:42;;;;;;;6.95;2.97;;;;;;;;;;5053436;28;20025;-53
2021/07/16 13:09:28;;;;;;;2.20;1.70;;;;;;;;;;5053035;28;20100;-53
2021/07/16 13:11:59;;;;;;;2.53;1.77;;;;;;;;;;5049006;28;20120;-53
2021/07/16 13:14:26;;;;;;;4.70;1.45;;;;;;;;;;5053042;28;20033;-53
2021/07/16 13:17:11;;;;;;;2.58;1.85;;;;;;;;;;5052916;28;20460;-52
2021/07/16 13:19:37;;;;;;;5.18;1.42;;;;;;;;;;5052831;28;20074;-52
2021/07/16 13:22:02;;;;;;;3.13;1.70;;;;;;;;;;5051602;28;20120;-53
2021/07/16 13:24:27;;;;;;;3.10;2.50;;;;;;;;;;5052727;28;20111;-52
2021/07/16 13:26:57;;;;;;;2.75;1.67;;;;;;;;;;5053102;28;20017;-52
2021/07/16 13:29:23;;;;;;;3.55;1.52;;;;;;;;;;5052770;28;20659;-53
2021/07/16 13:31:48;;;;;;;2.55;1.70;;;;;;;;;;5052672;28;20116;-53
2021/07/16 13:34:14;;;;;;;5.15;3.10;;;;;;;;;;5052588;28;20119;-53
2021/07/16 13:36:39;;;;;;;5.82;2.15;;;;;;;;;;5051949;28;20108;-53
2021/07/16 13:39:04;;;;;;;3.08;2.08;;;;;;;;;;5052455;28;20391;-53
2021/07/16 13:41:30;;;;;;;4.00;1.20;;;;;;;;;;5052619;28;20017;-52
2021/07/16 13:43:55;;;;;;;2.70;1.30;;;;;;;;;;5052591;28;20040;-53
2021/07/16 13:46:20;;;;;;;3.53;1.30;;;;;;;;;;5052697;28;20099;-53
2021/07/16 13:48:46;;;;;;;3.08;1.23;;;;;;;;;;5052705;28;20025;-52
2021/07/16 13:51:11;;;;;;;3.78;1.45;;;;;;;;;;5052323;28;20495;-53
2021/07/16 13:53:36;;;;;;;3.28;1.00;;;;;;;;;;5067892;28;20376;-53
2021/07/16 13:56:02;;;;;;;2.78;1.13;;;;;;;;;;5052242;28;20028;-53
2021/07/16 13:58:28;;;;;;;3.47;1.58;;;;;;;;;;5052406;28;20036;-53
2021/07/16 14:00:53;;;;;;;2.30;1.33;;;;;;;;;;5052332;28;20028;-52
2021/07/16 14:03:18;;;;;;;1.23;1.05;;;;;;;;;;5052117;28;20458;-52
2021/07/16 14:05:44;;;;;;;2.38;1.10;;;;;;;;;;5052494;28;20017;-52
2021/07/16 14:08:10;;;;;;;1.38;1.13;;;;;;;;;;5051978;28;20025;-52
2021/07/16 14:10:36;;;;;;;3.13;0.90;;;;;;;;;;5052541;28;20017;-53
2021/07/16 14:13:01;;;;;;;4.22;1.70;;;;;;;;;;5052409;28;20410;-52
2021/07/16 14:15:26;;;;;;;1.85;1.20;;;;;;;;;;5052405;28;20024;-53
2021/07/16 14:17:52;;;;;;;1.95;1.33;;;;;;;;;;5052174;28;20025;-52
2021/07/16 14:20:18;;;;;;;1.83;1.40;;;;;;;;;;5051989;28;20104;-52
2021/07/16 14:22:44;;;;;;;4.55;1.60;;;;;;;;;;5051970;28;20072;-51
2021/07/16 14:25:10;;;;;;;1.60;0.95;;;;;;;;;;5052128;28;20048;-53
2021/07/16 14:27:36;;;;;;;1.75;1.35;;;;;;;;;;5052209;28;20136;-51
2021/07/16 14:30:03;;;;;;;1.77;1.27;;;;;;;;;;5051974;28;20099;-52
2021/07/16 14:32:29;;;;;;;2.65;1.50;;;;;;;;;;5051915;28;20078;-52
2021/07/16 14:34:54;;;;;;;2.70;1.10;;;;;;;;;;5052279;28;20017;-51
2021/07/16 14:37:20;;;;;;;1.73;1.13;;;;;;;;;;5051870;28;20029;-51
2021/07/16 14:39:47;;;;;;;2.38;1.35;;;;;;;;;;5052242;28;20021;-52
2021/07/16 14:42:12;;;;;;;3.05;1.50;;;;;;;;;;5051847;28;20487;-52